Time;durP1;ratioP1;P1;durP2;ratioP2;P2;SDS_P1;SDS_P2;PMS_P1;PMS_P2;Temp;Humidity;BMP_temperature;BMP_pressure;BME280_temperature;BME280_humidity;BME280_pressure;Samples;Min_cycle;Max_cycle;Signal;HPM_P1;HPM_P2
2023/07/03 00:01:17;;;;;;;20.57;5.47;;;16.10;24.20;;;;;;5056157;28;20389;-73
2023/07/03 00:03:42;;;;;;;18.30;4.90;;;16.20;24.10;;;;;;5056767;28;20409;-74
2023/07/03 00:06:08;;;;;;;16.67;5.03;;;16.20;24.00;;;;;;5056384;28;20404;-74
2023/07/03 00:08:33;;;;;;;24.08;6.50;;;16.20;24.40;;;;;;5056358;28;20424;-74
2023/07/03 00:11:04;;;;;;;22.50;6.40;;;16.00;24.50;;;;;;5056111;28;20435;-74
2023/07/03 00:13:30;;;;;;;27.30;5.60;;;15.90;24.90;;;;;;5054612;28;20377;-73
2023/07/03 00:16:00;;;;;;;22.60;6.03;;;15.90;25.10;;;;;;5054834;28;20392;-73
2023/07/03 00:18:28;;;;;;;22.48;5.85;;;15.90;25.30;;;;;;5055704;28;20390;-73
2023/07/03 00:20:54;;;;;;;18.48;5.22;;;16.00;25.20;;;;;;5054616;28;20389;-71
2023/07/03 00:23:24;;;;;;;22.23;5.63;;;15.90;25.90;;;;;;5055075;28;20381;-73
2023/07/03 00:25:50;;;;;;;26.02;6.18;;;15.80;25.60;;;;;;5055166;28;20495;-72
2023/07/03 00:28:16;;;;;;;23.23;5.45;;;15.80;25.80;;;;;;5054883;28;20389;-72
2023/07/03 00:30:43;;;;;;;20.35;5.93;;;15.80;25.70;;;;;;5054967;28;21043;-72
2023/07/03 00:33:09;;;;;;;18.95;5.70;;;15.70;26.00;;;;;;5055033;28;20383;-73
2023/07/03 00:35:35;;;;;;;22.13;5.80;;;15.70;26.50;;;;;;5057857;28;20460;-74
2023/07/03 00:38:00;;;;;;;17.58;5.55;;;15.50;26.80;;;;;;5058822;28;20385;-73
2023/07/03 00:40:26;;;;;;;19.15;5.30;;;15.50;27.20;;;;;;5059006;28;20750;-72
2023/07/03 00:42:52;;;;;;;23.80;5.47;;;15.40;27.20;;;;;;5059815;28;20480;-73
2023/07/03 00:45:19;;;;;;;23.10;6.03;;;15.40;27.30;;;;;;5059166;28;20816;-75
2023/07/03 00:47:45;;;;;;;23.40;5.77;;;15.40;27.50;;;;;;5058500;28;20404;-74
2023/07/03 00:50:11;;;;;;;19.90;5.60;;;15.30;27.70;;;;;;5039971;28;20890;-74
2023/07/03 00:52:38;;;;;;;25.00;5.90;;;15.20;28.10;;;;;;5058263;28;20396;-73
2023/07/03 00:55:05;;;;;;;22.27;5.47;;;15.20;28.20;;;;;;5040247;28;20385;-74
2023/07/03 00:57:31;;;;;;;21.10;5.78;;;15.10;28.40;;;;;;5058787;28;20377;-74
2023/07/03 00:59:58;;;;;;;25.77;6.20;;;15.00;28.80;;;;;;5058291;28;20745;-73
2023/07/03 01:02:30;;;;;;;20.52;5.53;;;15.10;28.60;;;;;;5058530;28;20708;-74
2023/07/03 01:05:05;;;;;;;24.83;6.07;;;15.10;28.60;;;;;;5060888;28;20397;-75
2023/07/03 01:07:33;;;;;;;21.88;6.90;;;15.20;28.60;;;;;;5061024;28;20389;-74
2023/07/03 01:10:09;;;;;;;33.63;5.80;;;15.10;28.90;;;;;;5059966;28;20405;-74
2023/07/03 01:12:39;;;;;;;28.50;6.18;;;15.10;29.00;;;;;;5061748;28;20497;-74
2023/07/03 01:15:08;;;;;;;21.30;5.95;;;15.00;29.10;;;;;;5062328;28;20370;-74
2023/07/03 01:17:35;;;;;;;23.17;6.07;;;15.00;29.30;;;;;;5045114;28;20914;-73
2023/07/03 01:20:03;;;;;;;24.23;6.50;;;15.00;29.50;;;;;;5062059;28;20389;-72
2023/07/03 01:22:42;;;;;;;21.58;5.20;;;15.00;29.50;;;;;;5060992;28;20436;-72
2023/07/03 01:25:12;;;;;;;26.52;6.13;;;14.90;29.60;;;;;;5058350;28;20405;-74
2023/07/03 01:27:43;;;;;;;21.70;5.90;;;14.90;29.60;;;;;;5057912;28;20409;-73
2023/07/03 01:30:12;;;;;;;24.17;6.05;;;14.90;29.60;;;;;;5041168;28;20398;-72
2023/07/03 01:32:39;;;;;;;24.08;5.85;;;14.90;29.60;;;;;;5059499;28;20737;-74
2023/07/03 01:35:08;;;;;;;20.38;6.22;;;15.00;29.60;;;;;;5060302;28;20389;-73
2023/07/03 01:37:38;;;;;;;26.48;5.97;;;14.90;29.70;;;;;;5059677;28;20385;-73
2023/07/03 01:40:06;;;;;;;19.38;5.88;;;14.90;29.90;;;;;;5059499;28;20413;-72
2023/07/03 01:42:35;;;;;;;25.10;6.07;;;15.00;29.80;;;;;;5058883;28;20381;-73
2023/07/03 01:45:02;;;;;;;29.88;6.00;;;15.00;29.80;;;;;;5061759;28;20419;-73
2023/07/03 01:47:27;;;;;;;24.00;5.80;;;14.90;30.00;;;;;;5066795;28;20404;-73
2023/07/03 01:49:53;;;;;;;23.47;6.30;;;14.90;30.10;;;;;;5054814;28;20433;-73
2023/07/03 01:52:23;;;;;;;18.20;5.17;;;14.90;30.40;;;;;;5064307;28;20750;-74
2023/07/03 01:54:59;;;;;;;30.23;6.60;;;14.90;30.40;;;;;;5063687;28;20738;-74
2023/07/03 01:57:46;;;;;;;23.83;5.95;;;14.90;30.60;;;;;;5064276;28;20382;-74
2023/07/03 02:00:18;;;;;;;26.38;6.13;;;14.90;30.70;;;;;;5063633;28;20392;-72
2023/07/03 02:02:48;;;;;;;24.13;6.25;;;14.80;30.80;;;;;;5064028;28;20785;-72
2023/07/03 02:05:21;;;;;;;29.50;6.57;;;14.70;31.10;;;;;;5065159;28;20438;-72
2023/07/03 02:07:52;;;;;;;25.52;6.55;;;14.70;31.20;;;;;;5064084;28;20390;-74
2023/07/03 02:10:18;;;;;;;25.30;6.30;;;14.70;31.60;;;;;;5063335;28;20416;-74
2023/07/03 02:12:45;;;;;;;28.02;6.80;;;14.70;31.80;;;;;;5062655;28;20368;-74
2023/07/03 02:15:11;;;;;;;25.38;6.43;;;14.80;31.50;;;;;;5062582;28;20393;-73
2023/07/03 02:17:36;;;;;;;27.10;6.67;;;14.80;31.40;;;;;;5060377;28;20420;-71
2023/07/03 02:20:02;;;;;;;28.57;6.40;;;14.90;31.50;;;;;;5060023;28;20400;-73
2023/07/03 02:22:28;;;;;;;23.10;6.57;;;14.90;31.50;;;;;;5059755;28;20389;-73
2023/07/03 02:24:53;;;;;;;26.27;6.03;;;14.90;31.60;;;;;;5059647;28;20436;-73
2023/07/03 02:27:19;;;;;;;29.85;5.90;;;15.00;31.40;;;;;;5061322;28;20393;-72
2023/07/03 02:29:46;;;;;;;24.45;5.65;;;15.00;31.30;;;;;;5060347;28;20401;-72
2023/07/03 02:32:13;;;;;;;26.92;6.80;;;15.10;31.30;;;;;;5057451;28;21589;-74
2023/07/03 02:34:39;;;;;;;26.65;6.80;;;15.10;31.30;;;;;;5062012;28;20389;-73
2023/07/03 02:37:05;;;;;;;30.53;6.60;;;15.00;31.60;;;;;;5064393;28;20382;-74
2023/07/03 02:39:31;;;;;;;31.95;7.00;;;15.10;31.70;;;;;;5065620;28;20386;-73
2023/07/03 02:41:56;;;;;;;28.02;6.90;;;15.10;31.60;;;;;;5061798;28;20393;-74
2023/07/03 02:44:22;;;;;;;32.95;6.25;;;15.10;31.70;;;;;;5056767;28;20370;-74
2023/07/03 02:46:48;;;;;;;29.60;6.50;;;15.10;31.70;;;;;;5057623;28;20386;-73
2023/07/03 02:49:13;;;;;;;25.00;6.57;;;15.10;31.80;;;;;;5057433;28;20397;-74
2023/07/03 02:51:39;;;;;;;23.33;5.83;;;15.20;31.80;;;;;;5057469;28;20377;-74
2023/07/03 02:54:05;;;;;;;30.33;6.30;;;15.10;32.00;;;;;;5058154;28;20915;-74
2023/07/03 02:56:31;;;;;;;32.90;6.50;;;15.10;32.30;;;;;;5057845;28;20413;-74
2023/07/03 02:58:56;;;;;;;24.53;6.70;;;15.10;32.40;;;;;;5059731;28;20870;-73
2023/07/03 03:01:22;;;;;;;31.10;6.30;;;15.10;32.40;;;;;;5061211;28;20758;-74
2023/07/03 03:03:47;;;;;;;23.20;6.10;;;15.10;32.50;;;;;;5045730;28;20401;-72
2023/07/03 03:06:13;;;;;;;27.55;6.50;;;15.10;32.70;;;;;;5064381;28;20381;-73
2023/07/03 03:08:39;;;;;;;28.33;6.65;;;15.10;33.00;;;;;;5064526;28;20408;-73
2023/07/03 03:11:04;;;;;;;29.48;6.70;;;15.00;32.90;;;;;;5055711;28;20377;-74
2023/07/03 03:13:30;;;;;;;25.40;6.05;;;15.10;33.00;;;;;;5055692;28;20388;-74
2023/07/03 03:15:55;;;;;;;26.92;6.10;;;15.00;33.00;;;;;;5056401;28;20389;-74
2023/07/03 03:18:21;;;;;;;30.33;6.90;;;15.00;33.20;;;;;;5038518;28;20398;-74
2023/07/03 03:20:47;;;;;;;29.73;6.83;;;15.00;33.20;;;;;;5057637;28;20400;-71
2023/07/03 03:23:13;;;;;;;30.33;6.37;;;15.00;33.70;;;;;;5056803;28;20389;-74
2023/07/03 03:25:39;;;;;;;30.98;6.85;;;15.10;33.70;;;;;;5054264;28;20420;-74
2023/07/03 03:28:05;;;;;;;38.90;7.13;;;15.00;34.00;;;;;;5032883;28;20388;-72
2023/07/03 03:30:31;;;;;;;28.42;6.40;;;15.00;34.10;;;;;;5050488;28;20438;-72
2023/07/03 03:32:56;;;;;;;31.83;7.30;;;14.90;34.40;;;;;;5050388;28;20389;-72
2023/07/03 03:35:22;;;;;;;27.77;6.60;;;15.00;34.50;;;;;;5050485;28;20755;-72
2023/07/03 03:37:48;;;;;;;36.88;8.20;;;15.00;34.70;;;;;;5050571;28;20464;-72
2023/07/03 03:40:14;;;;;;;30.48;7.03;;;15.00;34.80;;;;;;5050634;28;20381;-73
2023/07/03 03:42:40;;;;;;;31.58;6.60;;;15.00;35.00;;;;;;5050587;28;20396;-71
2023/07/03 03:45:06;;;;;;;41.15;7.72;;;15.00;35.10;;;;;;5050977;28;20392;-71
2023/07/03 03:47:32;;;;;;;31.15;7.18;;;15.00;35.30;;;;;;5050712;28;20381;-71
2023/07/03 03:49:57;;;;;;;33.10;7.47;;;15.00;35.20;;;;;;5050542;28;20405;-72
2023/07/03 03:52:23;;;;;;;26.15;6.95;;;15.00;35.70;;;;;;5050129;28;20388;-72
2023/07/03 03:54:49;;;;;;;32.47;7.25;;;15.10;35.50;;;;;;5050322;28;20390;-72
2023/07/03 03:57:15;;;;;;;22.50;6.22;;;15.10;35.60;;;;;;5050414;28;20439;-74
2023/07/03 03:59:41;;;;;;;23.88;7.20;;;15.10;35.80;;;;;;5050483;28;20955;-72
2023/07/03 04:02:07;;;;;;;27.52;6.18;;;15.10;36.00;;;;;;5050246;28;20393;-73
2023/07/03 04:04:32;;;;;;;37.80;7.22;;;15.10;36.10;;;;;;5050410;28;20389;-71
2023/07/03 04:06:58;;;;;;;29.13;7.47;;;15.20;36.10;;;;;;5050640;28;20395;-72
2023/07/03 04:09:24;;;;;;;31.67;7.00;;;15.30;35.80;;;;;;5052013;28;20397;-72
2023/07/03 04:11:49;;;;;;;31.97;7.47;;;15.40;35.60;;;;;;5054470;28;20743;-72
2023/07/03 04:14:16;;;;;;;30.37;7.20;;;15.50;35.60;;;;;;5054927;28;20377;-72
2023/07/03 04:16:43;;;;;;;34.80;7.43;;;15.50;35.40;;;;;;5054706;28;20862;-71
2023/07/03 04:19:09;;;;;;;34.90;8.00;;;15.60;35.20;;;;;;5054454;28;20385;-71
2023/07/03 04:21:35;;;;;;;26.85;6.57;;;15.60;35.20;;;;;;5054814;28;20885;-73
2023/07/03 04:24:00;;;;;;;39.43;7.20;;;15.70;35.00;;;;;;5054068;28;20385;-72
2023/07/03 04:26:26;;;;;;;35.08;8.00;;;15.80;35.00;;;;;;5054151;28;20389;-71
2023/07/03 04:28:51;;;;;;;30.08;7.60;;;15.80;34.90;;;;;;5053975;28;20420;-72
2023/07/03 04:31:17;;;;;;;35.53;7.10;;;15.90;34.90;;;;;;5054322;28;20904;-72
2023/07/03 04:33:45;;;;;;;30.98;7.25;;;15.90;34.80;;;;;;5037898;28;20538;-72
2023/07/03 04:36:12;;;;;;;32.22;8.00;;;16.00;34.60;;;;;;5054889;28;20813;-72
2023/07/03 04:38:39;;;;;;;29.98;7.28;;;16.00;34.70;;;;;;5054433;28;20388;-73
2023/07/03 04:41:05;;;;;;;41.53;7.68;;;16.00;34.80;;;;;;5054410;28;20388;-72
2023/07/03 04:43:31;;;;;;;31.98;7.20;;;16.10;34.60;;;;;;5054635;28;20743;-72
2023/07/03 04:46:02;;;;;;;33.25;7.70;;;16.10;35.00;;;;;;5054833;28;20394;-71
2023/07/03 04:48:29;;;;;;;32.08;7.78;;;16.10;34.60;;;;;;5054689;28;20438;-72
2023/07/03 04:50:54;;;;;;;37.97;7.63;;;16.20;34.20;;;;;;5054086;28;20401;-72
2023/07/03 04:53:20;;;;;;;37.40;8.63;;;16.30;34.40;;;;;;5054163;28;20381;-73
2023/07/03 04:55:46;;;;;;;32.95;8.00;;;16.30;34.10;;;;;;5053695;28;20380;-71
2023/07/03 04:58:12;;;;;;;29.23;7.40;;;16.40;34.00;;;;;;5053900;28;20385;-72
2023/07/03 05:00:39;;;;;;;35.90;8.02;;;16.50;33.60;;;;;;5053391;28;20381;-71
2023/07/03 05:03:05;;;;;;;29.52;8.25;;;16.60;33.40;;;;;;5053226;28;20385;-72
2023/07/03 05:05:30;;;;;;;33.00;7.90;;;16.60;33.20;;;;;;5053924;28;20451;-72
2023/07/03 05:07:56;;;;;;;28.65;7.03;;;16.60;33.40;;;;;;5053606;28;20826;-72
2023/07/03 05:10:22;;;;;;;32.33;7.55;;;16.70;33.00;;;;;;5053477;28;20767;-72
2023/07/03 05:12:48;;;;;;;34.55;7.45;;;16.80;32.90;;;;;;5053168;28;20392;-72
2023/07/03 05:15:16;;;;;;;35.67;7.82;;;16.70;33.20;;;;;;5053050;28;20875;-72
2023/07/03 05:17:42;;;;;;;31.90;6.95;;;16.70;33.10;;;;;;5053239;28;20377;-73
2023/07/03 05:20:11;;;;;;;38.83;7.53;;;16.80;32.90;;;;;;5052830;28;20921;-73
2023/07/03 05:22:38;;;;;;;37.17;7.53;;;17.00;32.70;;;;;;5052519;28;20514;-72
2023/07/03 05:25:05;;;;;;;30.77;7.43;;;16.90;32.50;;;;;;5052514;28;21036;-72
2023/07/03 05:27:31;;;;;;;30.58;7.97;;;17.00;32.50;;;;;;5052844;28;20397;-72
2023/07/03 05:29:57;;;;;;;36.33;8.50;;;17.00;32.40;;;;;;5052782;28;20401;-73
2023/07/03 05:32:24;;;;;;;30.58;7.28;;;17.10;32.40;;;;;;5052447;28;20386;-72
2023/07/03 05:34:49;;;;;;;36.20;8.38;;;17.00;32.40;;;;;;5052596;28;20464;-71
2023/07/03 05:37:15;;;;;;;28.65;7.05;;;17.00;32.40;;;;;;5052483;28;20461;-72
2023/07/03 05:39:41;;;;;;;32.07;7.80;;;17.10;32.40;;;;;;5052695;28;20486;-72
2023/07/03 05:42:07;;;;;;;33.20;8.50;;;17.10;33.10;;;;;;5034516;28;20394;-72
2023/07/03 05:44:33;;;;;;;30.13;7.20;;;17.10;32.30;;;;;;5052473;28;20397;-73
2023/07/03 05:46:58;;;;;;;35.08;7.00;;;17.20;32.40;;;;;;5052203;28;20393;-72
2023/07/03 05:49:24;;;;;;;33.70;7.37;;;17.30;32.00;;;;;;5052538;28;20401;-73
2023/07/03 05:51:49;;;;;;;28.83;7.63;;;17.30;32.30;;;;;;5052439;28;20923;-72
2023/07/03 05:54:16;;;;;;;33.40;8.50;;;17.30;32.20;;;;;;5052204;28;20386;-72
2023/07/03 05:56:43;;;;;;;37.30;8.07;;;17.30;32.30;;;;;;5052472;28;20381;-72
2023/07/03 05:59:08;;;;;;;32.05;7.82;;;17.20;32.80;;;;;;5052971;28;20762;-72
2023/07/03 06:01:34;;;;;;;39.60;8.43;;;17.30;32.50;;;;;;5053026;28;20390;-71
2023/07/03 06:03:59;;;;;;;34.85;8.05;;;17.30;32.20;;;;;;5052272;28;20392;-71
2023/07/03 06:06:25;;;;;;;30.75;8.27;;;17.30;32.40;;;;;;5052258;28;20397;-73
2023/07/03 06:08:50;;;;;;;29.90;7.53;;;17.40;32.30;;;;;;5052012;28;20382;-72
2023/07/03 06:11:16;;;;;;;27.93;7.30;;;17.50;31.70;;;;;;5033819;28;20389;-72
2023/07/03 06:13:42;;;;;;;29.77;7.07;;;17.60;31.40;;;;;;5051743;28;20484;-72
2023/07/03 06:16:07;;;;;;;30.53;7.77;;;17.70;31.00;;;;;;5051872;28;20423;-70
2023/07/03 06:18:33;;;;;;;26.87;7.07;;;17.60;31.20;;;;;;5033657;28;20948;-72
2023/07/03 06:20:58;;;;;;;33.58;8.50;;;17.80;30.80;;;;;;5051535;28;20502;-72
2023/07/03 06:23:24;;;;;;;29.00;7.30;;;17.70;30.90;;;;;;5051806;28;20521;-72
2023/07/03 06:25:50;;;;;;;42.23;8.30;;;17.70;31.20;;;;;;5051530;28;20961;-71
2023/07/03 06:28:15;;;;;;;31.33;8.00;;;17.50;31.30;;;;;;5051417;28;20393;-73
2023/07/03 06:30:48;;;;;;;28.17;7.60;;;17.50;31.60;;;;;;5051477;28;20936;-72
2023/07/03 06:33:14;;;;;;;34.10;8.40;;;17.50;31.70;;;;;;5050228;28;20373;-73
2023/07/03 06:35:39;;;;;;;31.85;7.47;;;17.50;31.30;;;;;;5051343;28;20393;-72
2023/07/03 06:38:05;;;;;;;33.08;7.85;;;17.50;31.30;;;;;;5051504;28;20450;-72
2023/07/03 06:40:30;;;;;;;27.30;8.40;;;17.70;31.40;;;;;;5051348;28;20389;-71
2023/07/03 06:42:56;;;;;;;28.40;6.73;;;17.70;31.20;;;;;;5051154;28;20409;-72
2023/07/03 06:45:21;;;;;;;30.63;7.55;;;17.80;31.10;;;;;;5051313;28;20389;-72
2023/07/03 06:47:47;;;;;;;28.50;8.00;;;17.90;30.50;;;;;;5033814;28;20385;-71
2023/07/03 06:50:13;;;;;;;29.07;7.90;;;17.90;30.50;;;;;;5033167;28;20901;-73
2023/07/03 06:52:42;;;;;;;33.70;8.05;;;17.80;30.40;;;;;;5051308;28;20393;-72
2023/07/03 06:55:07;;;;;;;37.53;8.18;;;18.00;30.60;;;;;;5051049;28;20378;-71
2023/07/03 06:57:34;;;;;;;31.75;7.97;;;18.20;29.60;;;;;;5051121;28;20380;-71
2023/07/03 07:00:00;;;;;;;36.83;7.60;;;18.20;29.80;;;;;;5051234;28;20775;-73
2023/07/03 07:02:25;;;;;;;31.38;7.70;;;18.30;29.70;;;;;;5051427;28;20393;-71
2023/07/03 07:04:55;;;;;;;25.20;7.57;;;18.40;29.00;;;;;;5051407;28;20420;-72
2023/07/03 07:07:20;;;;;;;26.92;7.75;;;18.50;28.80;;;;;;5050976;28;20811;-72
2023/07/03 07:09:46;;;;;;;28.90;8.30;;;18.50;29.00;;;;;;5051596;28;20497;-72
2023/07/03 07:12:11;;;;;;;27.37;7.70;;;18.60;28.90;;;;;;5050839;28;20388;-71
2023/07/03 07:14:37;;;;;;;35.25;8.25;;;18.70;28.40;;;;;;5051527;28;20377;-72
2023/07/03 07:17:03;;;;;;;33.38;8.05;;;18.70;27.90;;;;;;5051783;28;20817;-72
2023/07/03 07:19:28;;;;;;;27.13;8.00;;;18.50;28.30;;;;;;5050812;28;20735;-73
2023/07/03 07:21:54;;;;;;;28.20;7.20;;;18.50;28.20;;;;;;5052943;28;20442;-72
2023/07/03 07:24:22;;;;;;;26.37;7.77;;;18.50;28.20;;;;;;5059092;28;20851;-71
2023/07/03 07:26:50;;;;;;;34.00;7.70;;;18.50;28.60;;;;;;5063870;28;20404;-74
2023/07/03 07:29:16;;;;;;;22.98;7.47;;;18.50;27.40;;;;;;5070659;28;20757;-74
2023/07/03 07:31:42;;;;;;;30.00;7.38;;;18.60;28.30;;;;;;5071202;28;20372;-72
2023/07/03 07:34:09;;;;;;;22.92;6.80;;;18.60;28.10;;;;;;5044280;28;20386;-73
2023/07/03 07:36:36;;;;;;;24.67;7.53;;;18.60;27.00;;;;;;5059620;28;20405;-73
2023/07/03 07:39:02;;;;;;;26.05;7.07;;;18.80;27.00;;;;;;5062207;28;20384;-73
2023/07/03 07:41:29;;;;;;;26.98;7.47;;;18.90;26.50;;;;;;5051206;28;20407;-72
2023/07/03 07:43:55;;;;;;;22.38;6.57;;;19.10;24.50;;;;;;5056773;28;20406;-73
2023/07/03 07:46:25;;;;;;;21.55;6.75;;;19.30;23.80;;;;;;5071101;28;20379;-73
2023/07/03 07:48:50;;;;;;;27.38;6.82;;;19.70;22.70;;;;;;5070915;28;20795;-71
2023/07/03 07:51:16;;;;;;;28.63;6.78;;;19.80;22.00;;;;;;5061415;28;20390;-74
2023/07/03 07:53:42;;;;;;;21.67;6.50;;;19.80;22.40;;;;;;5051153;28;20433;-72
2023/07/03 07:56:09;;;;;;;19.37;6.27;;;19.80;21.60;;;;;;5060956;28;20493;-72
2023/07/03 07:58:35;;;;;;;29.77;6.77;;;19.70;21.10;;;;;;5066644;28;20431;-73
2023/07/03 08:01:01;;;;;;;24.83;6.65;;;19.80;21.30;;;;;;5054834;28;20750;-71
2023/07/03 08:03:27;;;;;;;31.13;6.82;;;20.00;21.20;;;;;;5056832;28;20405;-72
2023/07/03 08:06:02;;;;;;;27.52;6.75;;;20.20;20.20;;;;;;5052483;28;20422;-74
2023/07/03 08:08:28;;;;;;;24.48;6.63;;;20.10;20.20;;;;;;5057634;28;20396;-74
2023/07/03 08:10:55;;;;;;;27.35;7.80;;;19.90;20.60;;;;;;5065782;28;20425;-74
2023/07/03 08:13:21;;;;;;;22.85;6.32;;;20.00;20.10;;;;;;5052918;28;20381;-74
2023/07/03 08:15:48;;;;;;;21.60;6.40;;;20.20;20.00;;;;;;5072130;28;20392;-75
2023/07/03 08:18:15;;;;;;;29.13;6.30;;;20.20;19.60;;;;;;5069726;28;20776;-73
2023/07/03 08:20:41;;;;;;;21.80;7.30;;;20.10;19.40;;;;;;5068567;28;20467;-73
2023/07/03 08:23:06;;;;;;;22.55;6.00;;;20.20;19.40;;;;;;5068349;28;20959;-73
2023/07/03 08:25:32;;;;;;;22.38;6.70;;;20.10;18.50;;;;;;5067310;28;20543;-73
2023/07/03 08:27:57;;;;;;;22.40;6.43;;;20.20;18.00;;;;;;5064624;28;20419;-77
2023/07/03 08:30:23;;;;;;;16.03;5.50;;;20.20;17.70;;;;;;5031768;28;20405;-78
2023/07/03 08:32:49;;;;;;;24.10;6.75;;;20.20;17.60;;;;;;5052078;28;20385;-75
2023/07/03 08:35:16;;;;;;;20.43;6.27;;;20.00;18.10;;;;;;5054051;28;20397;-72
2023/07/03 08:37:42;;;;;;;22.55;5.82;;;19.90;18.30;;;;;;5063804;28;20391;-71
2023/07/03 08:40:08;;;;;;;18.98;5.20;;;19.90;17.00;;;;;;5070559;28;20467;-74
2023/07/03 08:42:43;;;;;;;18.08;5.22;;;19.90;17.20;;;;;;5067068;28;20403;-72
2023/07/03 08:45:12;;;;;;;18.27;5.47;;;20.20;16.00;;;;;;5039060;28;20743;-72
2023/07/03 08:47:39;;;;;;;17.13;5.30;;;20.40;15.30;;;;;;5060856;28;20555;-70
2023/07/03 08:50:06;;;;;;;15.50;5.00;;;20.70;15.00;;;;;;5070517;28;20411;-70
2023/07/03 08:52:44;;;;;;;18.58;4.70;;;20.90;14.10;;;;;;5070347;28;20383;-71
2023/07/03 08:55:14;;;;;;;17.85;5.07;;;20.90;12.80;;;;;;5052509;28;20392;-72
2023/07/03 08:57:40;;;;;;;16.63;5.10;;;20.60;13.50;;;;;;5073669;28;20402;-71
2023/07/03 09:00:11;;;;;;;21.77;5.60;;;20.40;13.70;;;;;;5074354;28;20574;-70
2023/07/03 09:02:51;;;;;;;15.88;4.95;;;20.60;14.30;;;;;;5073474;28;20441;-70
2023/07/03 09:05:50;;;;;;;15.45;4.55;;;21.00;13.70;;;;;;5055773;28;20387;-71
2023/07/03 09:08:34;;;;;;;15.40;4.70;;;21.50;12.90;;;;;;5061424;28;20401;-72
2023/07/03 09:11:01;;;;;;;12.30;4.60;;;21.60;13.10;;;;;;5066345;28;20430;-72
2023/07/03 09:13:34;;;;;;;19.02;4.80;;;21.40;13.20;;;;;;5058249;28;20388;-72
2023/07/03 09:16:18;;;;;;;25.45;5.82;;;21.20;13.40;;;;;;5058128;28;20382;-72
2023/07/03 09:19:05;;;;;;;19.02;5.90;;;21.10;14.00;;;;;;5055098;28;20380;-72
2023/07/03 09:21:34;;;;;;;12.93;4.90;;;21.20;14.30;;;;;;5053377;28;20382;-72
2023/07/03 09:24:15;;;;;;;18.83;5.53;;;21.60;14.10;;;;;;5053648;28;20878;-73
2023/07/03 09:26:52;;;;;;;16.27;5.40;;;22.00;12.40;;;;;;5071723;22;20789;-73
2023/07/03 09:29:18;;;;;;;15.40;5.20;;;22.10;11.60;;;;;;5040065;28;20428;-75
2023/07/03 09:31:45;;;;;;;12.50;4.03;;;22.30;12.00;;;;;;5058000;28;20382;-74
2023/07/03 09:34:10;;;;;;;19.42;4.90;;;22.30;11.40;;;;;;5054098;28;20389;-75
2023/07/03 09:36:39;;;;;;;13.45;5.20;;;22.40;11.20;;;;;;5053549;28;20382;-74
2023/07/03 09:39:09;;;;;;;16.00;5.10;;;22.50;10.90;;;;;;5054752;28;20382;-74
2023/07/03 09:41:35;;;;;;;18.02;5.35;;;22.40;10.50;;;;;;5053036;28;20385;-72
2023/07/03 09:44:12;;;;;;;17.83;4.40;;;22.40;11.10;;;;;;5052884;28;20393;-75
2023/07/03 09:46:39;;;;;;;16.83;4.05;;;22.20;8.60;;;;;;5052579;28;20456;-77
2023/07/03 09:49:08;;;;;;;16.90;4.50;;;22.20;8.70;;;;;;5052746;28;20382;-75
2023/07/03 09:51:37;;;;;;;18.20;4.95;;;22.10;9.30;;;;;;5035752;28;20389;-76
2023/07/03 09:54:17;;;;;;;13.98;3.65;;;22.30;9.70;;;;;;5055895;28;20377;-74
2023/07/03 09:56:42;;;;;;;21.42;3.88;;;22.70;8.90;;;;;;5055059;28;20881;-73
2023/07/03 09:59:09;;;;;;;10.70;3.55;;;22.50;8.70;;;;;;5053601;28;20381;-73
2023/07/03 10:01:38;;;;;;;17.70;4.47;;;22.40;9.30;;;;;;5052179;28;20382;-74
2023/07/03 10:04:10;;;;;;;16.10;4.60;;;22.60;10.00;;;;;;5052488;28;20404;-73
2023/07/03 10:06:37;;;;;;;12.63;4.50;;;22.90;9.70;;;;;;5051805;28;20890;-74
2023/07/03 10:09:06;;;;;;;15.80;4.20;;;22.80;8.90;;;;;;5051811;28;20392;-73
2023/07/03 10:11:48;;;;;;;22.08;4.80;;;22.70;9.20;;;;;;5034139;28;20385;-72
2023/07/03 10:14:21;;;;;;;16.30;5.00;;;22.40;10.10;;;;;;5052510;28;20533;-73
2023/07/03 10:16:48;;;;;;;15.50;4.55;;;22.10;10.80;;;;;;5034264;28;20391;-74
2023/07/03 10:19:16;;;;;;;17.88;4.90;;;22.10;10.50;;;;;;5033954;28;20504;-74
2023/07/03 10:21:42;;;;;;;14.95;4.22;;;21.90;10.70;;;;;;5051978;28;20497;-74
2023/07/03 10:24:08;;;;;;;20.55;4.95;;;21.90;11.30;;;;;;5052034;28;20395;-73
2023/07/03 10:26:47;;;;;;;17.55;4.07;;;22.10;11.30;;;;;;5051674;28;20554;-74
2023/07/03 10:29:40;;;;;;;18.40;4.80;;;22.20;10.70;;;;;;5052615;28;20405;-73
2023/07/03 10:32:13;;;;;;;13.00;4.13;;;21.90;11.10;;;;;;5052537;28;20465;-74
2023/07/03 10:34:42;;;;;;;15.13;4.40;;;21.70;11.70;;;;;;5052100;28;20393;-73
2023/07/03 10:37:13;;;;;;;13.20;4.30;;;21.60;11.90;;;;;;5034245;28;20374;-73
2023/07/03 10:39:59;;;;;;;12.75;5.00;;;21.70;12.20;;;;;;5051671;28;20936;-73
2023/07/03 10:42:43;;;;;;;14.63;4.65;;;21.60;12.00;;;;;;5051435;28;20472;-75
2023/07/03 10:45:12;;;;;;;12.15;4.20;;;21.60;11.40;;;;;;5051262;28;20392;-76
2023/07/03 10:47:47;;;;;;;15.40;4.63;;;21.50;11.70;;;;;;5051896;28;20385;-74
2023/07/03 10:50:14;;;;;;;11.80;4.40;;;21.30;12.10;;;;;;5051204;28;20475;-74
2023/07/03 10:52:54;;;;;;;14.05;4.63;;;21.20;12.80;;;;;;5033195;28;20393;-75
2023/07/03 10:55:46;;;;;;;14.70;4.07;;;21.10;13.30;;;;;;5051339;28;20401;-75
2023/07/03 10:58:29;;;;;;;13.13;4.40;;;20.90;14.00;;;;;;5051382;28;20941;-74
2023/07/03 11:01:00;;;;;;;14.23;4.40;;;20.90;14.60;;;;;;5051142;28;20397;-76
2023/07/03 11:03:32;;;;;;;13.90;4.60;;;21.00;14.30;;;;;;5051176;28;20435;-74
2023/07/03 11:06:22;;;;;;;20.73;5.40;;;21.00;14.10;;;;;;5051428;28;20397;-74
2023/07/03 11:09:03;;;;;;;12.90;4.83;;;21.10;14.80;;;;;;5051000;28;20440;-75
2023/07/03 11:11:41;;;;;;;15.63;4.80;;;21.20;14.60;;;;;;5051057;28;20473;-74
2023/07/03 11:14:16;;;;;;;14.95;5.07;;;21.80;13.70;;;;;;5051196;28;20373;-75
2023/07/03 11:17:04;;;;;;;19.05;4.72;;;22.40;12.90;;;;;;5051113;28;20584;-74
2023/07/03 11:19:39;;;;;;;15.63;5.10;;;22.90;11.90;;;;;;5032565;28;20515;-75
2023/07/03 11:22:24;;;;;;;12.40;4.60;;;23.20;11.90;;;;;;5050608;28;20531;-74
2023/07/03 11:25:11;;;;;;;16.95;5.15;;;23.50;10.80;;;;;;5050847;28;20383;-74
2023/07/03 11:28:04;;;;;;;16.25;5.28;;;23.50;11.20;;;;;;5050554;28;20782;-73
2023/07/03 11:30:32;;;;;;;15.88;5.10;;;23.80;10.60;;;;;;5050562;28;20742;-72
2023/07/03 11:33:01;;;;;;;15.40;5.00;;;24.20;10.00;;;;;;5050792;28;20408;-74
2023/07/03 11:35:26;;;;;;;14.93;5.47;;;24.50;9.50;;;;;;5050344;28;20943;-73
2023/07/03 11:38:08;;;;;;;13.27;5.50;;;24.50;9.80;;;;;;5032866;28;20448;-75
2023/07/03 11:40:55;;;;;;;10.43;4.53;;;24.40;9.70;;;;;;5050756;28;20393;-75
2023/07/03 11:43:21;;;;;;;14.02;5.03;;;24.00;9.80;;;;;;5050821;28;20484;-74
2023/07/03 11:45:58;;;;;;;12.13;5.00;;;23.10;11.40;;;;;;5050565;28;20465;-75
2023/07/03 11:48:38;;;;;;;15.57;5.20;;;22.50;12.90;;;;;;5050336;28;20386;-73
2023/07/03 11:51:10;;;;;;;15.32;5.45;;;22.00;13.90;;;;;;5050188;28;20753;-73
2023/07/03 11:53:47;;;;;;;13.73;5.13;;;21.70;15.30;;;;;;5051447;28;20381;-73
2023/07/03 11:56:35;;;;;;;16.58;5.38;;;21.60;14.90;;;;;;5032867;28;20395;-76
2023/07/03 11:59:12;;;;;;;18.23;5.55;;;21.20;14.60;;;;;;5038564;28;20874;-75
2023/07/03 12:01:38;;;;;;;18.27;5.38;;;21.10;14.80;;;;;;5055995;28;20430;-74
2023/07/03 12:04:07;;;;;;;13.88;4.95;;;21.00;14.90;;;;;;5033393;28;20476;-74
2023/07/03 12:06:39;;;;;;;19.48;5.60;;;20.90;15.10;;;;;;5051090;28;20419;-76
2023/07/03 12:09:30;;;;;;;21.10;5.32;;;20.90;15.20;;;;;;5050874;28;20389;-75
2023/07/03 12:11:59;;;;;;;15.23;5.38;;;21.00;15.30;;;;;;5051100;28;20390;-75
2023/07/03 12:14:40;;;;;;;19.60;5.13;;;21.20;15.40;;;;;;5052187;28;20443;-74
2023/07/03 12:17:28;;;;;;;15.07;5.32;;;21.50;14.60;;;;;;5050357;28;20462;-74
2023/07/03 12:20:06;;;;;;;14.45;5.22;;;21.90;14.30;;;;;;5032581;28;20385;-75
2023/07/03 12:22:36;;;;;;;17.77;5.50;;;22.50;13.50;;;;;;5049942;28;20397;-73
2023/07/03 12:25:10;;;;;;;13.83;5.20;;;22.70;12.80;;;;;;5050063;28;20861;-75
2023/07/03 12:27:38;;;;;;;18.00;5.40;;;22.60;13.20;;;;;;5050222;28;20477;-75
2023/07/03 12:30:05;;;;;;;12.40;5.50;;;22.20;13.90;;;;;;5050141;28;20409;-74
2023/07/03 12:32:34;;;;;;;17.30;5.90;;;22.20;14.10;;;;;;5035905;28;20385;-74
2023/07/03 12:35:22;;;;;;;17.90;5.40;;;22.30;12.90;;;;;;5054262;28;20433;-74
2023/07/03 12:38:04;;;;;;;16.55;5.45;;;22.50;12.70;;;;;;5054452;28;20376;-75
2023/07/03 12:40:30;;;;;;;21.90;5.35;;;22.80;11.90;;;;;;5054076;28;20385;-74
2023/07/03 12:42:56;;;;;;;15.85;5.70;;;23.40;10.80;;;;;;5054474;28;20862;-74
2023/07/03 12:45:27;;;;;;;17.80;5.38;;;23.40;11.70;;;;;;5057037;28;20396;-75
2023/07/03 12:48:10;;;;;;;12.90;5.30;;;23.40;10.30;;;;;;5055154;28;20389;-75